Time;durP1;ratioP1;P1;durP2;ratioP2;P2;SDS_P1;SDS_P2;PMS_P1;PMS_P2;Temp;Humidity;BMP_temperature;BMP_pressure;BME280_temperature;BME280_humidity;BME280_pressure;Samples;Min_cycle;Max_cycle;Signal;HPM_P1;HPM_P2
2021/07/06 00:00:35;;;;;;;3.30;1.40;;;;;;;;;;5012081;28;20038;-61
2021/07/06 00:03:01;;;;;;;3.90;1.55;;;;;;;;;;5009414;28;20073;-61
2021/07/06 00:05:27;;;;;;;3.50;1.70;;;;;;;;;;5023623;28;20033;-61
2021/07/06 00:07:53;;;;;;;4.18;1.90;;;;;;;;;;5011052;28;20060;-59
2021/07/06 00:10:20;;;;;;;6.18;1.50;;;;;;;;;;5011706;28;20387;-60
2021/07/06 00:12:49;;;;;;;5.63;2.00;;;;;;;;;;5013710;28;20045;-59
2021/07/06 00:15:16;;;;;;;3.47;1.70;;;;;;;;;;5011945;28;20054;-60
2021/07/06 00:17:42;;;;;;;3.47;1.40;;;;;;;;;;5009593;28;20044;-60
2021/07/06 00:20:09;;;;;;;3.47;1.60;;;;;;;;;;5012086;28;20061;-60
2021/07/06 00:22:35;;;;;;;4.35;1.42;;;;;;;;;;5011192;28;20035;-60
2021/07/06 00:25:01;;;;;;;3.80;1.50;;;;;;;;;;5012897;28;20046;-60
2021/07/06 00:27:27;;;;;;;3.67;1.52;;;;;;;;;;5012782;28;20043;-61
2021/07/06 00:29:52;;;;;;;3.90;1.58;;;;;;;;;;5011151;28;20049;-60
2021/07/06 00:32:18;;;;;;;3.42;1.40;;;;;;;;;;5013185;28;20465;-60
2021/07/06 00:34:44;;;;;;;7.25;1.75;;;;;;;;;;5013435;28;20776;-59
2021/07/06 00:37:10;;;;;;;3.55;1.38;;;;;;;;;;5011889;28;20038;-60
2021/07/06 00:39:36;;;;;;;3.65;1.60;;;;;;;;;;5011477;28;20053;-59
2021/07/06 00:42:08;;;;;;;4.75;1.50;;;;;;;;;;5011281;28;20034;-59
2021/07/06 00:44:34;;;;;;;5.50;2.35;;;;;;;;;;5010316;28;20515;-60
2021/07/06 00:46:59;;;;;;;7.05;2.30;;;;;;;;;;5011274;28;20041;-59
2021/07/06 00:49:25;;;;;;;3.75;1.60;;;;;;;;;;5009260;28;20046;-60
2021/07/06 00:51:51;;;;;;;5.45;1.52;;;;;;;;;;5012471;28;20045;-60
2021/07/06 00:54:17;;;;;;;5.28;1.42;;;;;;;;;;5012617;28;20033;-58
2021/07/06 00:56:44;;;;;;;7.78;1.70;;;;;;;;;;5010707;28;20034;-60
2021/07/06 00:59:12;;;;;;;3.53;1.48;;;;;;;;;;5011721;28;20041;-58
2021/07/06 01:01:37;;;;;;;5.35;1.50;;;;;;;;;;5009962;28;20545;-58
2021/07/06 01:04:04;;;;;;;3.60;1.23;;;;;;;;;;5015623;28;20049;-59
2021/07/06 01:06:30;;;;;;;3.20;1.40;;;;;;;;;;5014822;28;20498;-60
2021/07/06 01:08:56;;;;;;;4.32;1.60;;;;;;;;;;5016516;28;20124;-58
2021/07/06 01:11:22;;;;;;;3.22;1.48;;;;;;;;;;5016253;28;20174;-59
2021/07/06 01:13:49;;;;;;;5.05;1.70;;;;;;;;;;5018020;28;20038;-60
2021/07/06 01:16:14;;;;;;;4.13;1.42;;;;;;;;;;5016827;28;20041;-61
2021/07/06 01:18:41;;;;;;;5.47;1.55;;;;;;;;;;5027426;28;20094;-60
2021/07/06 01:21:07;;;;;;;5.18;1.50;;;;;;;;;;5014842;28;20046;-59
2021/07/06 01:23:33;;;;;;;4.70;1.63;;;;;;;;;;5012617;28;20045;-60
2021/07/06 01:26:00;;;;;;;4.80;1.65;;;;;;;;;;5014015;28;20052;-59
2021/07/06 01:28:26;;;;;;;4.78;1.70;;;;;;;;;;5012787;28;20044;-61
2021/07/06 01:30:52;;;;;;;3.75;1.35;;;;;;;;;;5015484;28;20030;-62
2021/07/06 01:33:26;;;;;;;7.00;1.70;;;;;;;;;;5014355;28;20133;-60
2021/07/06 01:35:52;;;;;;;4.45;1.38;;;;;;;;;;5014991;28;20045;-58
2021/07/06 01:38:18;;;;;;;6.63;1.40;;;;;;;;;;5015108;28;20509;-58
2021/07/06 01:40:44;;;;;;;5.10;1.58;;;;;;;;;;5013159;28;20049;-61
2021/07/06 01:43:10;;;;;;;4.88;1.33;;;;;;;;;;5015946;28;20052;-59
2021/07/06 01:45:36;;;;;;;4.30;1.50;;;;;;;;;;5013008;28;20386;-60
2021/07/06 01:48:03;;;;;;;3.55;1.40;;;;;;;;;;5014857;28;20041;-60
2021/07/06 01:50:33;;;;;;;3.30;1.30;;;;;;;;;;5017255;28;20059;-61
2021/07/06 01:53:00;;;;;;;6.35;2.35;;;;;;;;;;5015955;28;20593;-60
2021/07/06 01:55:27;;;;;;;5.20;1.77;;;;;;;;;;5015381;28;20045;-59
2021/07/06 01:57:54;;;;;;;3.53;1.50;;;;;;;;;;5013368;28;20037;-60
2021/07/06 02:00:21;;;;;;;3.88;1.30;;;;;;;;;;5012760;28;20038;-58
2021/07/06 02:02:47;;;;;;;4.75;1.20;;;;;;;;;;5015609;28;20042;-60
2021/07/06 02:05:19;;;;;;;4.82;1.13;;;;;;;;;;5013345;28;20053;-58
2021/07/06 02:07:46;;;;;;;3.97;1.20;;;;;;;;;;5011553;28;20045;-59
2021/07/06 02:10:12;;;;;;;3.22;1.00;;;;;;;;;;5013522;28;20358;-60
2021/07/06 02:12:39;;;;;;;3.97;1.20;;;;;;;;;;5012529;28;20046;-59
2021/07/06 02:15:05;;;;;;;3.30;1.23;;;;;;;;;;5013190;28;20132;-60
2021/07/06 02:17:31;;;;;;;3.65;1.20;;;;;;;;;;5012466;28;20052;-60
2021/07/06 02:19:57;;;;;;;3.45;1.10;;;;;;;;;;5013660;28;20045;-59
2021/07/06 02:22:23;;;;;;;3.35;1.20;;;;;;;;;;5010429;28;20042;-61
2021/07/06 02:24:49;;;;;;;5.75;1.10;;;;;;;;;;5014863;28;20720;-60
2021/07/06 02:27:15;;;;;;;6.55;1.25;;;;;;;;;;5014207;28;20047;-61
2021/07/06 02:29:41;;;;;;;3.97;1.30;;;;;;;;;;5012401;28;20080;-61
2021/07/06 02:32:07;;;;;;;3.35;1.30;;;;;;;;;;5011922;28;20193;-61
2021/07/06 02:34:33;;;;;;;5.25;1.50;;;;;;;;;;5011241;28;20564;-61
2021/07/06 02:36:58;;;;;;;3.28;1.00;;;;;;;;;;5015972;28;20076;-60
2021/07/06 02:39:24;;;;;;;4.55;1.35;;;;;;;;;;5011689;28;20746;-60
2021/07/06 02:41:50;;;;;;;5.32;1.33;;;;;;;;;;5013263;28;20041;-62
2021/07/06 02:44:16;;;;;;;6.70;1.95;;;;;;;;;;5014083;28;20155;-61
2021/07/06 02:46:42;;;;;;;3.10;1.30;;;;;;;;;;5012085;28;20135;-61
2021/07/06 02:49:07;;;;;;;4.25;1.30;;;;;;;;;;5013045;28;20030;-61
2021/07/06 02:51:35;;;;;;;4.20;1.50;;;;;;;;;;5012593;28;20120;-61
2021/07/06 02:54:01;;;;;;;4.45;1.08;;;;;;;;;;5011209;28;20552;-61
2021/07/06 02:56:26;;;;;;;4.97;1.27;;;;;;;;;;5011582;28;20042;-61
2021/07/06 02:58:52;;;;;;;2.85;0.98;;;;;;;;;;5013103;28;20042;-61
2021/07/06 03:01:18;;;;;;;5.03;1.40;;;;;;;;;;5013537;28;20111;-61
2021/07/06 03:03:44;;;;;;;3.72;1.27;;;;;;;;;;5011756;28;20141;-59
2021/07/06 03:06:10;;;;;;;3.58;1.17;;;;;;;;;;5014425;28;20044;-61
2021/07/06 03:08:36;;;;;;;4.55;1.30;;;;;;;;;;5011804;28;20084;-59
2021/07/06 03:11:02;;;;;;;3.22;1.00;;;;;;;;;;5012747;28;20088;-60
2021/07/06 03:13:28;;;;;;;3.72;1.10;;;;;;;;;;5010107;28;20049;-60
2021/07/06 03:15:53;;;;;;;3.50;1.50;;;;;;;;;;5013633;28;20038;-60
2021/07/06 03:18:19;;;;;;;5.80;1.30;;;;;;;;;;5015165;28;20391;-60
2021/07/06 03:20:47;;;;;;;3.40;1.30;;;;;;;;;;5014597;28;20461;-59
2021/07/06 03:23:12;;;;;;;5.13;1.15;;;;;;;;;;5016964;28;20038;-61
2021/07/06 03:25:40;;;;;;;3.30;1.30;;;;;;;;;;5013665;28;20056;-60
2021/07/06 03:28:06;;;;;;;4.38;2.15;;;;;;;;;;5012180;28;20059;-62
2021/07/06 03:30:33;;;;;;;5.35;1.40;;;;;;;;;;5010515;28;20959;-60
2021/07/06 03:32:59;;;;;;;3.40;1.42;;;;;;;;;;5014022;28;21902;-61
2021/07/06 03:35:25;;;;;;;4.45;2.00;;;;;;;;;;5012634;28;20076;-61
2021/07/06 03:37:52;;;;;;;4.95;1.40;;;;;;;;;;5011280;28;20034;-60
2021/07/06 03:40:18;;;;;;;3.75;1.50;;;;;;;;;;5013140;28;21138;-61
2021/07/06 03:42:44;;;;;;;3.60;1.50;;;;;;;;;;5013469;28;20037;-60
2021/07/06 03:45:11;;;;;;;3.40;1.30;;;;;;;;;;5012685;28;20296;-58
2021/07/06 03:47:37;;;;;;;3.10;1.25;;;;;;;;;;5012210;28;20057;-60
2021/07/06 03:50:03;;;;;;;3.88;1.63;;;;;;;;;;5013502;28;20126;-61
2021/07/06 03:52:32;;;;;;;4.18;1.13;;;;;;;;;;5012155;28;20081;-61
2021/07/06 03:54:58;;;;;;;7.45;1.30;;;;;;;;;;5013851;28;20042;-60
2021/07/06 03:57:29;;;;;;;4.63;1.65;;;;;;;;;;5014656;28;20049;-60
2021/07/06 03:59:59;;;;;;;4.05;1.60;;;;;;;;;;5015925;28;20087;-59
2021/07/06 04:02:25;;;;;;;4.15;1.40;;;;;;;;;;5012449;28;20077;-62
2021/07/06 04:04:51;;;;;;;3.90;1.70;;;;;;;;;;5011961;28;20914;-60
2021/07/06 04:07:17;;;;;;;5.40;2.13;;;;;;;;;;5026077;28;20038;-61
2021/07/06 04:09:44;;;;;;;5.57;2.22;;;;;;;;;;4995295;28;20050;-61
2021/07/06 04:12:09;;;;;;;3.92;1.60;;;;;;;;;;5011701;28;20037;-60
2021/07/06 04:14:35;;;;;;;5.32;1.90;;;;;;;;;;5010522;28;20030;-60
2021/07/06 04:17:01;;;;;;;4.43;1.98;;;;;;;;;;5012912;28;20075;-61
2021/07/06 04:19:27;;;;;;;8.55;1.70;;;;;;;;;;5009717;28;20490;-59
2021/07/06 04:22:13;;;;;;;5.95;1.70;;;;;;;;;;5027428;28;20110;-59
2021/07/06 04:24:39;;;;;;;4.15;1.48;;;;;;;;;;5029138;28;20218;-59
2021/07/06 04:27:05;;;;;;;4.40;1.50;;;;;;;;;;5029205;28;20052;-60
2021/07/06 04:29:30;;;;;;;5.45;1.80;;;;;;;;;;5027969;28;20465;-60
2021/07/06 04:31:57;;;;;;;5.07;1.75;;;;;;;;;;5032829;28;20091;-60
2021/07/06 04:34:25;;;;;;;5.15;2.03;;;;;;;;;;5032330;28;20029;-60
2021/07/06 04:36:51;;;;;;;4.15;1.83;;;;;;;;;;5029156;28;20037;-62
2021/07/06 04:39:17;;;;;;;4.18;1.67;;;;;;;;;;5027356;28;20041;-59
2021/07/06 04:41:44;;;;;;;5.28;1.73;;;;;;;;;;5026487;28;20036;-58
2021/07/06 04:44:10;;;;;;;3.38;1.45;;;;;;;;;;5028470;28;20045;-58
2021/07/06 04:46:36;;;;;;;3.40;1.45;;;;;;;;;;5029834;28;20045;-58
2021/07/06 04:49:02;;;;;;;4.55;1.75;;;;;;;;;;5027589;28;20053;-59
2021/07/06 04:51:29;;;;;;;5.05;1.63;;;;;;;;;;5024788;28;20148;-58
2021/07/06 04:53:55;;;;;;;5.45;1.90;;;;;;;;;;5028054;28;20041;-58
2021/07/06 04:56:24;;;;;;;5.40;2.05;;;;;;;;;;5027451;28;20148;-57
2021/07/06 04:58:50;;;;;;;5.82;2.03;;;;;;;;;;5024762;28;20044;-60
2021/07/06 05:01:16;;;;;;;4.63;1.60;;;;;;;;;;5026805;28;20550;-55
2021/07/06 05:03:42;;;;;;;5.13;1.80;;;;;;;;;;5010767;28;20079;-58
2021/07/06 05:06:09;;;;;;;6.10;1.90;;;;;;;;;;5014036;28;20465;-58
2021/07/06 05:08:35;;;;;;;4.63;1.85;;;;;;;;;;5012394;28;20073;-59
2021/07/06 05:11:01;;;;;;;9.23;2.15;;;;;;;;;;5010900;28;20108;-57
2021/07/06 05:13:27;;;;;;;3.65;1.50;;;;;;;;;;5011376;28;20085;-59
2021/07/06 05:15:53;;;;;;;3.60;1.60;;;;;;;;;;5010642;28;20497;-58
2021/07/06 05:18:19;;;;;;;4.07;1.70;;;;;;;;;;5011781;28;20042;-59
2021/07/06 05:20:45;;;;;;;3.83;1.38;;;;;;;;;;5009079;28;20110;-57
2021/07/06 05:23:11;;;;;;;4.32;1.50;;;;;;;;;;5010687;28;20125;-59
2021/07/06 05:25:37;;;;;;;3.80;1.67;;;;;;;;;;5010815;28;20053;-58
2021/07/06 05:28:03;;;;;;;4.18;1.65;;;;;;;;;;5010980;28;20042;-56
2021/07/06 05:30:29;;;;;;;4.63;1.50;;;;;;;;;;5010798;28;20038;-58
2021/07/06 05:32:54;;;;;;;3.58;1.55;;;;;;;;;;5009780;28;20440;-59
2021/07/06 05:35:20;;;;;;;3.72;1.63;;;;;;;;;;5008698;28;20054;-58
2021/07/06 05:37:46;;;;;;;3.40;1.60;;;;;;;;;;5009307;28;20120;-57
2021/07/06 05:40:12;;;;;;;4.43;1.33;;;;;;;;;;5011063;28;20104;-58
2021/07/06 05:42:38;;;;;;;3.75;1.58;;;;;;;;;;5010091;28;20044;-58
2021/07/06 05:45:05;;;;;;;3.83;1.50;;;;;;;;;;5008019;28;20124;-59
2021/07/06 05:47:34;;;;;;;3.92;1.58;;;;;;;;;;5012325;28;20133;-58
2021/07/06 05:50:00;;;;;;;3.55;1.58;;;;;;;;;;5010097;28;20034;-59
2021/07/06 05:52:27;;;;;;;3.85;1.50;;;;;;;;;;5011180;28;20530;-59
2021/07/06 05:54:53;;;;;;;5.78;1.60;;;;;;;;;;5013577;28;20562;-58
2021/07/06 05:57:29;;;;;;;4.10;1.75;;;;;;;;;;5014332;28;20045;-58
2021/07/06 05:59:55;;;;;;;5.25;1.67;;;;;;;;;;5011400;28;20743;-54
2021/07/06 06:02:21;;;;;;;4.28;1.52;;;;;;;;;;5026665;28;21332;-56
2021/07/06 06:04:47;;;;;;;3.88;1.58;;;;;;;;;;5012240;28;20050;-56
2021/07/06 06:07:13;;;;;;;3.50;1.50;;;;;;;;;;5014070;28;20139;-59
2021/07/06 06:09:39;;;;;;;3.78;1.55;;;;;;;;;;5012987;28;20600;-59
2021/07/06 06:12:05;;;;;;;6.03;2.30;;;;;;;;;;5013024;28;20383;-56
2021/07/06 06:14:30;;;;;;;3.42;1.55;;;;;;;;;;5011136;28;20053;-58
2021/07/06 06:16:56;;;;;;;5.07;1.85;;;;;;;;;;5012651;28;20120;-59
2021/07/06 06:19:22;;;;;;;5.93;1.70;;;;;;;;;;5011085;28;21990;-56
2021/07/06 06:21:48;;;;;;;3.65;1.70;;;;;;;;;;5013161;28;20065;-58
2021/07/06 06:24:14;;;;;;;4.15;1.73;;;;;;;;;;5012435;28;20605;-59
2021/07/06 06:26:40;;;;;;;5.53;1.80;;;;;;;;;;5012423;28;20380;-56
2021/07/06 06:29:05;;;;;;;3.90;1.55;;;;;;;;;;5010438;28;20069;-58
2021/07/06 06:31:31;;;;;;;4.55;2.00;;;;;;;;;;5011727;28;20029;-57
2021/07/06 06:33:57;;;;;;;5.53;1.90;;;;;;;;;;5010772;28;20057;-59
2021/07/06 06:36:23;;;;;;;5.93;1.83;;;;;;;;;;5011965;28;22663;-59
2021/07/06 06:38:49;;;;;;;4.15;1.80;;;;;;;;;;5013255;28;20033;-58
2021/07/06 06:41:14;;;;;;;5.80;1.92;;;;;;;;;;5013658;28;20060;-58
2021/07/06 06:43:40;;;;;;;4.20;1.90;;;;;;;;;;5011121;28;20041;-58
2021/07/06 06:46:06;;;;;;;5.28;2.03;;;;;;;;;;5013410;28;20042;-59
2021/07/06 06:48:32;;;;;;;6.15;2.08;;;;;;;;;;5010719;28;20044;-58
2021/07/06 06:50:58;;;;;;;5.05;1.98;;;;;;;;;;5014539;28;20037;-58
2021/07/06 06:53:24;;;;;;;3.75;1.73;;;;;;;;;;5011271;28;20044;-57
2021/07/06 06:55:50;;;;;;;4.03;1.80;;;;;;;;;;5013664;28;20049;-57
2021/07/06 06:58:16;;;;;;;3.85;1.98;;;;;;;;;;5014530;28;20738;-56
2021/07/06 07:00:41;;;;;;;4.78;1.80;;;;;;;;;;5012651;28;20061;-57
2021/07/06 07:03:07;;;;;;;5.07;1.98;;;;;;;;;;5011472;28;20047;-57
2021/07/06 07:05:33;;;;;;;6.05;1.60;;;;;;;;;;5012086;28;20048;-56
2021/07/06 07:07:59;;;;;;;3.88;1.83;;;;;;;;;;5013770;28;20048;-54
2021/07/06 07:10:28;;;;;;;5.25;2.15;;;;;;;;;;5012206;28;20102;-56
2021/07/06 07:12:54;;;;;;;4.53;2.28;;;;;;;;;;5012517;28;20046;-55
2021/07/06 07:15:20;;;;;;;6.38;2.17;;;;;;;;;;5012384;28;20042;-55
2021/07/06 07:17:46;;;;;;;4.53;2.20;;;;;;;;;;5012815;28;20103;-57
2021/07/06 07:20:12;;;;;;;5.00;2.08;;;;;;;;;;5013759;28;20034;-58
2021/07/06 07:22:39;;;;;;;6.30;2.60;;;;;;;;;;5010197;28;20128;-58
2021/07/06 07:25:05;;;;;;;8.32;2.80;;;;;;;;;;5011451;28;20058;-57
2021/07/06 07:27:31;;;;;;;4.53;2.25;;;;;;;;;;5011389;28;20041;-58
2021/07/06 07:29:57;;;;;;;5.00;2.58;;;;;;;;;;5012034;28;20080;-54
2021/07/06 07:32:23;;;;;;;5.25;2.72;;;;;;;;;;5010719;28;20084;-55
2021/07/06 07:34:49;;;;;;;6.00;2.58;;;;;;;;;;5011219;28;20125;-58
2021/07/06 07:37:16;;;;;;;6.03;2.55;;;;;;;;;;5011346;28;20144;-57
2021/07/06 07:39:44;;;;;;;5.45;2.90;;;;;;;;;;5011323;28;20050;-56
2021/07/06 07:42:10;;;;;;;12.82;3.40;;;;;;;;;;5011322;28;20446;-58
2021/07/06 07:44:36;;;;;;;6.40;3.35;;;;;;;;;;5009930;28;20049;-57
2021/07/06 07:47:02;;;;;;;7.07;3.35;;;;;;;;;;5010790;28;20103;-56
2021/07/06 07:49:28;;;;;;;9.77;3.55;;;;;;;;;;5010255;28;20579;-56
2021/07/06 07:51:54;;;;;;;8.75;3.72;;;;;;;;;;5025667;28;20030;-57
2021/07/06 07:54:20;;;;;;;7.22;3.85;;;;;;;;;;5010184;28;20117;-56
2021/07/06 07:56:46;;;;;;;7.97;3.50;;;;;;;;;;5010148;28;20057;-56
2021/07/06 07:59:12;;;;;;;7.95;4.32;;;;;;;;;;5011694;28;20096;-57
2021/07/06 08:01:38;;;;;;;8.48;4.32;;;;;;;;;;5012037;28;20546;-59
2021/07/06 08:04:04;;;;;;;7.80;4.00;;;;;;;;;;5011516;28;20073;-59
2021/07/06 08:06:30;;;;;;;10.40;4.65;;;;;;;;;;5010597;28;20498;-57
2021/07/06 08:08:56;;;;;;;7.38;4.18;;;;;;;;;;5010259;28;20066;-57
2021/07/06 08:11:22;;;;;;;7.93;4.43;;;;;;;;;;5009861;28;20064;-56
2021/07/06 08:13:48;;;;;;;9.70;4.90;;;;;;;;;;5010768;28;20041;-59
2021/07/06 08:16:14;;;;;;;9.95;5.22;;;;;;;;;;5009597;28;20038;-57
2021/07/06 08:18:40;;;;;;;9.68;5.40;;;;;;;;;;5010405;28;20415;-58
2021/07/06 08:21:06;;;;;;;9.18;4.82;;;;;;;;;;5011670;28;20034;-59
2021/07/06 08:23:32;;;;;;;7.68;4.90;;;;;;;;;;5012254;28;20045;-58
2021/07/06 08:25:58;;;;;;;10.95;5.60;;;;;;;;;;5011455;28;20045;-57
2021/07/06 08:28:24;;;;;;;9.63;5.05;;;;;;;;;;5009784;28;20406;-55
2021/07/06 08:30:50;;;;;;;8.23;4.80;;;;;;;;;;5011478;28;20041;-57
2021/07/06 08:33:16;;;;;;;9.63;4.88;;;;;;;;;;5012272;28;20041;-55
2021/07/06 08:35:42;;;;;;;8.18;4.93;;;;;;;;;;5009661;28;20045;-59
2021/07/06 08:38:08;;;;;;;8.27;5.20;;;;;;;;;;5011737;28;20033;-58
2021/07/06 08:40:34;;;;;;;8.48;5.13;;;;;;;;;;5011669;28;20045;-55
2021/07/06 08:43:01;;;;;;;10.02;5.47;;;;;;;;;;5014483;28;20683;-59
2021/07/06 08:45:27;;;;;;;9.60;6.10;;;;;;;;;;5011333;28;20045;-59
2021/07/06 08:47:53;;;;;;;9.02;5.38;;;;;;;;;;5009713;28;20045;-60
2021/07/06 08:50:20;;;;;;;10.52;5.65;;;;;;;;;;5010627;28;20953;-60
2021/07/06 08:52:46;;;;;;;11.18;5.90;;;;;;;;;;5012291;28;20125;-60
2021/07/06 08:55:13;;;;;;;8.45;5.10;;;;;;;;;;5012187;28;20040;-58
2021/07/06 08:57:43;;;;;;;9.85;5.53;;;;;;;;;;5010596;28;20045;-58
2021/07/06 09:00:09;;;;;;;8.93;5.40;;;;;;;;;;5011146;28;20113;-58
2021/07/06 09:02:35;;;;;;;9.75;6.20;;;;;;;;;;5009301;28;20508;-58
2021/07/06 09:05:01;;;;;;;8.73;4.88;;;;;;;;;;5009678;28;20054;-58
2021/07/06 09:07:42;;;;;;;8.40;5.35;;;;;;;;;;5003848;28;20440;-59
2021/07/06 09:10:15;;;;;;;11.23;6.50;;;;;;;;;;5009524;28;20038;-57
2021/07/06 09:12:41;;;;;;;8.32;5.30;;;;;;;;;;5010578;28;20038;-57
2021/07/06 09:15:27;;;;;;;8.05;5.20;;;;;;;;;;5012163;28;20102;-54
2021/07/06 09:18:07;;;;;;;8.15;5.22;;;;;;;;;;5009262;28;20049;-56
2021/07/06 09:20:33;;;;;;;11.50;5.32;;;;;;;;;;5012187;28;20038;-59
2021/07/06 09:23:18;;;;;;;8.02;5.22;;;;;;;;;;5011225;28;20038;-59
2021/07/06 09:25:44;;;;;;;8.18;5.30;;;;;;;;;;5010765;28;20674;-55
2021/07/06 09:28:25;;;;;;;8.38;5.10;;;;;;;;;;5012816;28;20038;-58
2021/07/06 09:30:51;;;;;;;7.43;4.65;;;;;;;;;;5013010;28;20115;-58
2021/07/06 09:33:27;;;;;;;7.53;4.53;;;;;;;;;;5015688;28;20148;-57
2021/07/06 09:35:53;;;;;;;8.27;4.70;;;;;;;;;;5013728;28;20814;-60
2021/07/06 09:38:18;;;;;;;8.27;4.47;;;;;;;;;;5015659;28;20033;-59
2021/07/06 09:40:51;;;;;;;7.28;4.68;;;;;;;;;;5014274;28;20509;-56
2021/07/06 09:43:17;;;;;;;9.90;4.87;;;;;;;;;;5014996;28;20072;-56
2021/07/06 09:45:46;;;;;;;9.27;5.63;;;;;;;;;;5014440;28;21200;-58
2021/07/06 09:48:11;;;;;;;9.20;5.65;;;;;;;;;;5014408;28;20092;-57
2021/07/06 09:50:37;;;;;;;12.05;5.65;;;;;;;;;;5013301;28;20037;-55
2021/07/06 09:53:03;;;;;;;9.70;5.80;;;;;;;;;;5014203;28;20736;-57
2021/07/06 09:55:30;;;;;;;9.73;5.60;;;;;;;;;;5013887;28;20038;-58
2021/07/06 09:57:56;;;;;;;9.07;5.38;;;;;;;;;;5015809;28;20049;-57
2021/07/06 10:00:22;;;;;;;10.15;6.03;;;;;;;;;;5014413;28;20034;-58
2021/07/06 10:02:48;;;;;;;10.82;5.63;;;;;;;;;;5012055;28;20621;-57
2021/07/06 10:05:17;;;;;;;12.20;6.75;;;;;;;;;;5012087;28;20526;-55
2021/07/06 10:07:43;;;;;;;9.18;5.70;;;;;;;;;;5010881;28;20038;-57
2021/07/06 10:10:11;;;;;;;10.57;5.97;;;;;;;;;;5012974;28;20068;-57
2021/07/06 10:12:38;;;;;;;10.13;6.07;;;;;;;;;;5011427;28;20032;-57
2021/07/06 10:15:05;;;;;;;10.07;5.93;;;;;;;;;;5012200;28;20037;-57
2021/07/06 10:17:32;;;;;;;10.73;6.38;;;;;;;;;;5011965;28;20041;-57
2021/07/06 10:19:58;;;;;;;10.23;5.70;;;;;;;;;;5014155;28;20055;-56
2021/07/06 10:22:24;;;;;;;10.70;6.30;;;;;;;;;;5013510;28;20033;-57
2021/07/06 10:24:49;;;;;;;10.63;6.55;;;;;;;;;;5013438;28;20049;-58
2021/07/06 10:27:26;;;;;;;12.85;7.13;;;;;;;;;;5013338;28;20030;-58
2021/07/06 10:30:15;;;;;;;12.90;7.20;;;;;;;;;;5013026;28;20033;-55
2021/07/06 10:32:45;;;;;;;9.60;5.95;;;;;;;;;;5013838;28;20084;-59
2021/07/06 10:35:12;;;;;;;9.95;6.20;;;;;;;;;;5012707;28;20438;-58
2021/07/06 10:37:39;;;;;;;13.80;6.63;;;;;;;;;;5013007;28;20120;-59
2021/07/06 10:40:13;;;;;;;12.50;6.95;;;;;;;;;;5015418;28;20049;-57
2021/07/06 10:42:40;;;;;;;11.90;6.93;;;;;;;;;;5012923;28;20554;-57
2021/07/06 10:45:13;;;;;;;10.48;6.47;;;;;;;;;;5011867;28;20111;-56
2021/07/06 10:47:39;;;;;;;13.45;7.90;;;;;;;;;;5011410;28;20045;-58
2021/07/06 10:50:24;;;;;;;11.85;6.80;;;;;;;;;;5012876;28;20048;-59
2021/07/06 10:53:09;;;;;;;10.95;6.80;;;;;;;;;;5012276;28;20045;-59
2021/07/06 10:55:35;;;;;;;14.50;7.88;;;;;;;;;;5013495;28;20038;-59
2021/07/06 10:58:01;;;;;;;13.38;7.65;;;;;;;;;;5013711;28;20092;-58
2021/07/06 11:00:43;;;;;;;12.05;7.57;;;;;;;;;;5012752;28;20037;-58
2021/07/06 11:03:13;;;;;;;14.00;7.45;;;;;;;;;;5015645;28;20044;-57
2021/07/06 11:05:39;;;;;;;11.95;7.10;;;;;;;;;;5012773;28;20130;-57
2021/07/06 11:08:05;;;;;;;13.48;7.82;;;;;;;;;;5012026;28;20128;-58
2021/07/06 11:10:36;;;;;;;12.65;7.85;;;;;;;;;;5011109;28;20041;-56
2021/07/06 11:13:12;;;;;;;14.52;8.90;;;;;;;;;;5014455;28;20042;-58
2021/07/06 11:15:38;;;;;;;14.27;9.02;;;;;;;;;;5010215;28;20045;-59
2021/07/06 11:18:04;;;;;;;14.50;8.63;;;;;;;;;;5011657;28;20052;-58
2021/07/06 11:20:30;;;;;;;14.98;8.82;;;;;;;;;;5011619;28;20587;-59
2021/07/06 11:22:57;;;;;;;15.52;9.05;;;;;;;;;;5011631;28;20041;-59
2021/07/06 11:25:23;;;;;;;18.13;9.43;;;;;;;;;;5010104;28;20438;-58
2021/07/06 11:27:57;;;;;;;15.77;9.55;;;;;;;;;;5011401;28;20041;-57
2021/07/06 11:30:31;;;;;;;15.52;9.60;;;;;;;;;;5010015;28;20048;-58
2021/07/06 11:33:15;;;;;;;18.65;10.40;;;;;;;;;;5010947;28;20060;-59
2021/07/06 11:35:43;;;;;;;17.42;10.50;;;;;;;;;;5009132;28;20159;-58
2021/07/06 11:38:18;;;;;;;16.35;9.90;;;;;;;;;;5011355;28;20060;-59
2021/07/06 11:40:45;;;;;;;16.60;10.15;;;;;;;;;;5011619;28;20048;-57
2021/07/06 11:43:13;;;;;;;16.10;9.98;;;;;;;;;;5010906;28;20038;-59
2021/07/06 11:45:38;;;;;;;14.23;8.85;;;;;;;;;;5010067;28;20041;-58
2021/07/06 11:48:09;;;;;;;14.77;9.45;;;;;;;;;;5009323;28;20057;-59
2021/07/06 11:50:35;;;;;;;16.02;9.88;;;;;;;;;;5009731;28;20030;-58
2021/07/06 11:53:01;;;;;;;15.00;9.20;;;;;;;;;;5011914;28;20037;-60
2021/07/06 11:55:28;;;;;;;15.77;9.52;;;;;;;;;;5011108;28;20044;-59
2021/07/06 11:57:55;;;;;;;14.00;8.88;;;;;;;;;;5011887;28;20034;-59
2021/07/06 12:00:25;;;;;;;16.75;10.50;;;;;;;;;;5011651;28;20037;-58
2021/07/06 12:02:51;;;;;;;16.35;10.60;;;;;;;;;;5011365;28;20132;-59
2021/07/06 12:05:17;;;;;;;17.63;10.98;;;;;;;;;;5010586;28;20045;-59
2021/07/06 12:07:43;;;;;;;18.58;11.57;;;;;;;;;;5009459;28;20048;-58
2021/07/06 12:10:09;;;;;;;19.20;12.07;;;;;;;;;;5009730;28;20046;-60
2021/07/06 12:12:36;;;;;;;18.98;12.10;;;;;;;;;;5010256;28;20552;-59
2021/07/06 12:15:03;;;;;;;19.92;11.55;;;;;;;;;;5010493;28;20114;-59
2021/07/06 12:17:30;;;;;;;17.55;11.13;;;;;;;;;;5011242;28;20040;-57
2021/07/06 12:19:56;;;;;;;19.35;11.30;;;;;;;;;;5011888;28;20040;-57
2021/07/06 12:22:23;;;;;;;20.10;10.80;;;;;;;;;;5009660;28;20136;-57
2021/07/06 12:24:49;;;;;;;16.58;10.68;;;;;;;;;;5009547;28;20067;-59
2021/07/06 12:27:17;;;;;;;16.55;10.18;;;;;;;;;;5009507;28;20038;-60
2021/07/06 12:29:43;;;;;;;21.10;11.25;;;;;;;;;;5010726;28;20041;-61
2021/07/06 12:32:13;;;;;;;17.55;10.70;;;;;;;;;;5009837;28;20176;-60
2021/07/06 12:34:40;;;;;;;16.00;10.23;;;;;;;;;;5007878;28;20107;-60
2021/07/06 12:37:09;;;;;;;18.60;9.55;;;;;;;;;;5010598;28;20034;-61
2021/07/06 12:39:36;;;;;;;14.02;9.00;;;;;;;;;;5010052;28;20843;-62
2021/07/06 12:42:04;;;;;;;15.27;8.05;;;;;;;;;;5010719;28;20133;-61
2021/07/06 12:44:32;;;;;;;13.82;7.88;;;;;;;;;;5008570;28;20144;-62
2021/07/06 12:47:12;;;;;;;13.35;8.48;;;;;;;;;;5009939;28;20526;-61
2021/07/06 12:49:38;;;;;;;15.40;8.40;;;;;;;;;;5008121;28;20832;-59
2021/07/06 12:52:06;;;;;;;11.15;7.30;;;;;;;;;;5010185;28;20038;-62
2021/07/06 12:54:33;;;;;;;11.77;7.43;;;;;;;;;;5010278;28;20042;-60
2021/07/06 12:56:59;;;;;;;10.63;6.80;;;;;;;;;;5011335;28;20045;-60
2021/07/06 12:59:27;;;;;;;11.82;7.53;;;;;;;;;;5009997;28;20692;-59
2021/07/06 13:01:54;;;;;;;11.90;6.85;;;;;;;;;;5011936;28;20491;-60
2021/07/06 13:04:22;;;;;;;13.35;6.70;;;;;;;;;;5014079;28;20053;-60
2021/07/06 13:06:50;;;;;;;11.90;7.45;;;;;;;;;;5015486;28;20041;-60
2021/07/06 13:09:36;;;;;;;11.45;7.22;;;;;;;;;;5014661;28;20052;-60
2021/07/06 13:12:12;;;;;;;11.00;6.72;;;;;;;;;;5013533;28;20057;-59
2021/07/06 13:14:38;;;;;;;11.25;6.90;;;;;;;;;;5011570;28;20106;-61
2021/07/06 13:17:23;;;;;;;12.65;6.93;;;;;;;;;;5015757;28;20490;-60
2021/07/06 13:20:07;;;;;;;9.95;6.15;;;;;;;;;;5014951;28;20041;-59
2021/07/06 13:22:34;;;;;;;10.02;5.97;;;;;;;;;;5012955;28;20956;-60
2021/07/06 13:25:00;;;;;;;10.73;5.85;;;;;;;;;;5014599;28;20049;-59
2021/07/06 13:27:32;;;;;;;11.07;6.00;;;;;;;;;;5013888;28;20044;-61
2021/07/06 13:30:04;;;;;;;10.52;6.10;;;;;;;;;;5015778;28;20459;-58
2021/07/06 13:32:30;;;;;;;9.95;5.75;;;;;;;;;;5014430;28;20072;-58
2021/07/06 13:34:56;;;;;;;9.70;5.45;;;;;;;;;;5013590;28;20518;-61
2021/07/06 13:37:25;;;;;;;10.43;5.70;;;;;;;;;;5014167;28;20077;-60
2021/07/06 13:39:52;;;;;;;9.85;5.55;;;;;;;;;;5014154;28;20052;-58
2021/07/06 13:42:17;;;;;;;11.07;6.53;;;;;;;;;;5021364;28;20253;-59
2021/07/06 13:44:43;;;;;;;11.20;5.93;;;;;;;;;;5014589;28;20041;-59
2021/07/06 13:47:09;;;;;;;12.65;6.53;;;;;;;;;;5019028;28;20253;-59
2021/07/06 13:49:35;;;;;;;12.07;5.80;;;;;;;;;;5019702;28;20112;-59
2021/07/06 13:52:01;;;;;;;9.55;5.13;;;;;;;;;;5015188;28;20038;-59
2021/07/06 13:54:34;;;;;;;11.25;6.38;;;;;;;;;;5018485;28;20672;-59
2021/07/06 13:57:01;;;;;;;10.70;6.20;;;;;;;;;;5015014;28;20103;-60
2021/07/06 13:59:27;;;;;;;9.35;5.68;;;;;;;;;;5016540;28;20030;-60
2021/07/06 14:01:53;;;;;;;11.18;6.07;;;;;;;;;;5013060;28;20045;-57
2021/07/06 14:04:20;;;;;;;10.98;5.45;;;;;;;;;;5014162;28;20711;-61
2021/07/06 14:06:47;;;;;;;9.25;5.78;;;;;;;;;;5014487;28;20046;-59
2021/07/06 14:09:13;;;;;;;9.75;6.03;;;;;;;;;;5012726;28;20037;-61
2021/07/06 14:11:39;;;;;;;13.10;5.80;;;;;;;;;;5013341;28;22813;-57
2021/07/06 14:14:05;;;;;;;10.20;5.95;;;;;;;;;;5010597;28;20148;-56
2021/07/06 14:16:31;;;;;;;10.25;5.90;;;;;;;;;;5011752;28;20038;-57
2021/07/06 14:18:57;;;;;;;10.13;5.45;;;;;;;;;;5012930;28;20034;-56
2021/07/06 14:21:22;;;;;;;8.90;5.22;;;;;;;;;;5014711;28;20042;-57
2021/07/06 14:23:48;;;;;;;9.43;5.22;;;;;;;;;;5012305;28;20038;-58
2021/07/06 14:26:14;;;;;;;10.45;5.65;;;;;;;;;;5012198;28;20080;-57
2021/07/06 14:28:44;;;;;;;11.90;5.90;;;;;;;;;;5012033;28;20459;-56
2021/07/06 14:31:10;;;;;;;9.48;5.53;;;;;;;;;;5011279;28;20045;-58
2021/07/06 14:33:36;;;;;;;13.13;6.15;;;;;;;;;;5012459;28;20056;-55
2021/07/06 14:36:01;;;;;;;10.68;6.05;;;;;;;;;;5011624;28;20058;-55
2021/07/06 14:38:27;;;;;;;9.52;5.85;;;;;;;;;;5012349;28;20041;-57